createdAt,value
2023-05-06T00:00:22.382Z,2.70
2023-05-06T00:02:49.405Z,2.65
2023-05-06T00:05:18.569Z,3.05
2023-05-06T00:07:46.419Z,2.45
2023-05-06T00:10:13.460Z,2.42
2023-05-06T00:12:40.715Z,2.47
2023-05-06T00:15:08.229Z,2.13
2023-05-06T00:17:35.553Z,2.67
2023-05-06T00:20:03.770Z,2.03
2023-05-06T00:22:30.917Z,2.17
2023-05-06T00:24:57.815Z,2.57
2023-05-06T00:27:24.816Z,2.20
2023-05-06T00:29:51.944Z,2.65
2023-05-06T00:32:18.922Z,2.33
2023-05-06T00:34:46.126Z,2.67
2023-05-06T00:37:13.083Z,2.40
2023-05-06T00:39:40.002Z,2.38
2023-05-06T00:42:07.030Z,2.30
2023-05-06T00:44:33.901Z,2.58
2023-05-06T00:47:01.537Z,2.50
2023-05-06T00:49:30.305Z,2.73
2023-05-06T00:51:58.526Z,2.10
2023-05-06T00:54:26.797Z,2.70
2023-05-06T00:56:54.210Z,2.38
2023-05-06T00:59:22.691Z,2.33
2023-05-06T01:01:52.190Z,2.20
2023-05-06T01:04:19.389Z,2.45
2023-05-06T01:06:51.149Z,2.53
2023-05-06T01:09:22.627Z,2.53
2023-05-06T01:12:12.964Z,2.30
2023-05-06T01:14:55.051Z,2.67
2023-05-06T01:17:27.997Z,2.60
2023-05-06T01:19:59.832Z,3.00
2023-05-06T01:22:28.772Z,2.88
2023-05-06T01:24:55.867Z,2.83
2023-05-06T01:27:23.367Z,2.40
2023-05-06T01:29:50.562Z,2.60
2023-05-06T01:32:33.895Z,3.85
2023-05-06T01:35:13.158Z,3.00
2023-05-06T01:38:02.456Z,3.30
2023-05-06T01:40:31.230Z,3.10
2023-05-06T01:43:02.490Z,2.72
2023-05-06T01:45:34.104Z,3.30
2023-05-06T01:48:01.665Z,3.05
2023-05-06T01:50:29.693Z,3.63
2023-05-06T01:53:02.598Z,3.00
2023-05-06T01:55:29.948Z,3.42
2023-05-06T01:57:56.987Z,3.05
2023-05-06T02:00:25.244Z,3.10
2023-05-06T02:02:52.684Z,3.40
2023-05-06T02:05:20.781Z,3.07
2023-05-06T02:07:51.854Z,3.22
2023-05-06T02:10:19.645Z,3.30
2023-05-06T02:12:52.148Z,3.33
2023-05-06T02:15:19.180Z,3.63
2023-05-06T02:17:46.219Z,3.70
2023-05-06T02:20:13.397Z,3.20
2023-05-06T02:22:40.571Z,3.47
2023-05-06T02:25:08.665Z,3.13
2023-05-06T02:27:35.906Z,3.30
2023-05-06T02:30:06.556Z,2.77
2023-05-06T02:32:33.593Z,4.05
2023-05-06T02:35:00.743Z,3.53
2023-05-06T02:37:27.692Z,3.25
2023-05-06T02:39:54.597Z,3.10
2023-05-06T02:42:21.881Z,3.00
2023-05-06T02:44:48.789Z,3.03
2023-05-06T02:47:15.830Z,3.15
2023-05-06T02:49:44.617Z,2.90
2023-05-06T02:52:12.817Z,3.03
2023-05-06T02:54:39.751Z,3.30
2023-05-06T02:57:06.826Z,2.80
2023-05-06T02:59:34.864Z,3.08
2023-05-06T03:02:05.020Z,3.05
2023-05-06T03:04:32.154Z,3.10
2023-05-06T03:06:59.151Z,3.00
2023-05-06T03:09:26.251Z,3.20
2023-05-06T03:11:53.737Z,2.90
2023-05-06T03:14:21.390Z,3.30
2023-05-06T03:16:49.451Z,3.30
2023-05-06T03:19:16.599Z,3.27
2023-05-06T03:21:44.776Z,3.35
2023-05-06T03:24:11.983Z,3.00
2023-05-06T03:26:39.508Z,3.15
2023-05-06T03:29:07.436Z,4.18
2023-05-06T03:31:37.958Z,3.63
2023-05-06T03:34:07.208Z,3.45
2023-05-06T03:36:34.854Z,3.35
2023-05-06T03:39:01.913Z,3.42
2023-05-06T03:41:31.512Z,3.88
2023-05-06T03:43:59.076Z,3.80
2023-05-06T03:46:27.931Z,4.30
2023-05-06T03:48:55.090Z,3.80
2023-05-06T03:51:22.404Z,3.58
2023-05-06T03:53:54.668Z,3.85
2023-05-06T03:56:23.105Z,4.10
2023-05-06T03:58:54.331Z,4.00
2023-05-06T04:01:23.266Z,3.85
2023-05-06T04:03:50.557Z,4.05
2023-05-06T04:06:18.258Z,4.18
2023-05-06T04:08:45.444Z,3.83
2023-05-06T04:11:12.740Z,4.07
2023-05-06T04:13:39.695Z,4.32
2023-05-06T04:16:12.935Z,3.95
2023-05-06T04:18:44.095Z,4.40
2023-05-06T04:21:14.208Z,3.87
2023-05-06T04:23:44.307Z,4.38
2023-05-06T04:26:14.952Z,4.00
2023-05-06T04:28:42.870Z,4.47
2023-05-06T04:31:14.726Z,4.53
2023-05-06T04:33:45.532Z,4.27
2023-05-06T04:36:19.090Z,4.05
2023-05-06T04:38:57.682Z,4.00
2023-05-06T04:41:26.062Z,4.05
2023-05-06T04:43:53.787Z,4.05
2023-05-06T04:46:23.966Z,3.77
2023-05-06T04:48:52.401Z,3.60
2023-05-06T04:51:20.754Z,4.15
2023-05-06T04:53:48.970Z,3.58
2023-05-06T04:56:16.158Z,3.70
2023-05-06T04:58:43.178Z,4.10
2023-05-06T05:01:11.497Z,3.72
2023-05-06T05:03:41.297Z,3.42
2023-05-06T05:06:10.111Z,3.97
2023-05-06T05:08:37.199Z,3.75
2023-05-06T05:11:06.601Z,3.53
2023-05-06T05:13:35.054Z,3.85
2023-05-06T05:16:05.274Z,4.35
2023-05-06T05:18:33.660Z,3.90
2023-05-06T05:21:06.908Z,3.50
2023-05-06T05:23:35.963Z,3.03
2023-05-06T05:26:03.955Z,3.22
2023-05-06T05:28:31.013Z,3.80
2023-05-06T05:31:08.344Z,3.33
2023-05-06T05:33:36.944Z,3.80
2023-05-06T05:36:07.998Z,3.07
2023-05-06T05:38:36.157Z,3.58
2023-05-06T05:41:04.152Z,3.30
2023-05-06T05:43:31.563Z,3.30
2023-05-06T05:46:00.705Z,3.75
2023-05-06T05:48:32.776Z,3.60
2023-05-06T05:51:04.762Z,3.70
2023-05-06T05:53:32.632Z,4.03
2023-05-06T05:55:59.723Z,3.17
2023-05-06T05:58:27.289Z,3.78
2023-05-06T06:00:59.739Z,3.30
2023-05-06T06:03:27.464Z,3.50
2023-05-06T06:05:55.384Z,3.40
2023-05-06T06:08:24.862Z,3.10
2023-05-06T06:10:52.914Z,3.50
2023-05-06T06:13:25.344Z,3.07
2023-05-06T06:15:57.461Z,3.08
2023-05-06T06:18:33.105Z,3.25
2023-05-06T06:21:00.500Z,3.40
2023-05-06T06:23:27.638Z,4.38
2023-05-06T06:25:54.669Z,4.33
2023-05-06T06:28:21.922Z,3.83
2023-05-06T06:30:48.921Z,3.55
2023-05-06T06:33:15.948Z,3.72
2023-05-06T06:35:45.533Z,3.47
2023-05-06T06:38:12.674Z,3.50
2023-05-06T06:40:42.762Z,3.15
2023-05-06T06:43:20.449Z,3.30
2023-05-06T06:45:54.757Z,3.92
2023-05-06T06:48:22.040Z,2.90
2023-05-06T06:50:49.107Z,3.30
2023-05-06T06:53:16.237Z,2.70
2023-05-06T06:55:44.432Z,2.88
2023-05-06T06:58:11.384Z,2.90
2023-05-06T07:00:38.569Z,2.92
2023-05-06T07:03:05.583Z,3.00
2023-05-06T07:05:32.554Z,3.38
2023-05-06T07:07:59.580Z,3.00
2023-05-06T07:10:26.770Z,3.38
2023-05-06T07:12:54.330Z,3.05
2023-05-06T07:15:21.471Z,3.47
2023-05-06T07:17:48.564Z,3.05
2023-05-06T07:20:16.310Z,3.60
2023-05-06T07:22:44.395Z,3.70
2023-05-06T07:25:11.672Z,3.38
2023-05-06T07:27:38.925Z,3.33
2023-05-06T07:30:07.004Z,3.85
2023-05-06T07:32:34.261Z,3.60
2023-05-06T07:35:01.698Z,3.65
2023-05-06T07:37:28.709Z,3.70
2023-05-06T07:39:57.518Z,3.73
2023-05-06T07:42:24.515Z,3.80
2023-05-06T07:44:51.531Z,3.50
2023-05-06T07:47:28.253Z,3.03
2023-05-06T07:49:55.868Z,3.67
2023-05-06T07:52:24.066Z,3.33
2023-05-06T07:54:51.372Z,3.00
2023-05-06T07:57:18.344Z,3.65
2023-05-06T07:59:48.624Z,3.42
2023-05-06T08:02:16.449Z,3.60
2023-05-06T08:04:43.740Z,3.37
2023-05-06T08:07:12.729Z,3.10
2023-05-06T08:09:39.840Z,3.50
2023-05-06T08:12:07.505Z,3.55
2023-05-06T08:14:34.561Z,3.65
2023-05-06T08:17:02.679Z,3.80
2023-05-06T08:19:32.790Z,3.38
2023-05-06T08:21:59.734Z,3.90
2023-05-06T08:24:36.183Z,3.80
2023-05-06T08:27:06.325Z,4.05
2023-05-06T08:29:33.379Z,4.00
2023-05-06T08:32:00.493Z,3.38
2023-05-06T08:34:27.610Z,5.78
2023-05-06T08:36:54.523Z,3.88
2023-05-06T08:39:21.468Z,3.45
2023-05-06T08:41:52.776Z,4.00
2023-05-06T08:44:23.030Z,4.35
2023-05-06T08:46:50.281Z,4.00
2023-05-06T08:49:17.375Z,3.25
2023-05-06T08:51:44.908Z,3.22
2023-05-06T08:54:16.074Z,3.50
2023-05-06T08:56:47.532Z,3.88
2023-05-06T08:59:14.584Z,3.85
2023-05-06T09:01:41.692Z,3.13
2023-05-06T09:04:10.274Z,3.25
2023-05-06T09:06:37.171Z,2.93
2023-05-06T09:09:04.206Z,3.72
2023-05-06T09:11:31.870Z,3.30
2023-05-06T09:14:13.273Z,3.40
2023-05-06T09:16:42.823Z,5.40
2023-05-06T09:19:10.117Z,3.80
2023-05-06T09:21:39.239Z,3.20
2023-05-06T09:24:07.839Z,3.00
2023-05-06T09:26:37.298Z,3.00
2023-05-06T09:29:05.550Z,3.83
2023-05-06T09:31:33.020Z,2.80
2023-05-06T09:34:01.253Z,2.92
2023-05-06T09:36:29.133Z,3.70
2023-05-06T09:38:57.823Z,3.20
2023-05-06T09:41:25.736Z,4.53
2023-05-06T09:43:54.283Z,3.77
2023-05-06T09:46:22.900Z,3.95
2023-05-06T09:48:54.335Z,4.60
2023-05-06T09:51:21.795Z,5.90
2023-05-06T09:53:48.882Z,5.90
2023-05-06T09:56:16.509Z,6.83
2023-05-06T09:58:43.669Z,7.43
2023-05-06T10:01:19.215Z,7.82
2023-05-06T10:03:54.577Z,8.60
2023-05-06T10:06:24.507Z,7.40
2023-05-06T10:08:52.784Z,8.17
2023-05-06T10:11:21.810Z,8.90
2023-05-06T10:13:49.904Z,7.30
2023-05-06T10:16:19.202Z,9.27
2023-05-06T10:18:49.829Z,7.32
2023-05-06T10:21:24.476Z,7.13
2023-05-06T10:24:00.019Z,7.18
2023-05-06T10:26:29.905Z,9.13
2023-05-06T10:28:57.191Z,8.43
2023-05-06T10:31:25.133Z,8.95
2023-05-06T10:33:54.955Z,9.30
2023-05-06T10:36:24.504Z,8.10
2023-05-06T10:38:56.937Z,6.22
2023-05-06T10:41:27.797Z,5.97
2023-05-06T10:43:59.980Z,6.55
2023-05-06T10:46:30.707Z,4.00
2023-05-06T10:49:08.528Z,4.25
2023-05-06T10:51:37.780Z,4.85
2023-05-06T10:54:19.923Z,3.67
2023-05-06T10:56:49.912Z,2.97
2023-05-06T10:59:23.679Z,2.40
2023-05-06T11:02:11.041Z,2.10
2023-05-06T11:04:38.746Z,2.05
2023-05-06T11:07:21.189Z,2.53
2023-05-06T11:10:03.363Z,1.55
2023-05-06T11:13:19.000Z,1.40
2023-05-06T11:15:46.474Z,1.80
2023-05-06T11:18:26.828Z,2.00
2023-05-06T11:21:02.751Z,1.80
2023-05-06T11:23:42.484Z,1.90
2023-05-06T11:26:11.210Z,1.73
2023-05-06T11:28:42.941Z,1.95
2023-05-06T11:31:10.117Z,2.13
2023-05-06T11:33:44.429Z,1.95
2023-05-06T11:36:18.922Z,2.10
2023-05-06T11:38:47.406Z,2.10
2023-05-06T11:41:17.512Z,2.35
2023-05-06T11:43:51.893Z,2.30
2023-05-06T11:46:19.911Z,2.40
2023-05-06T11:48:50.479Z,2.40
2023-05-06T11:51:22.751Z,2.40
2023-05-06T11:53:49.709Z,2.40
2023-05-06T11:56:17.054Z,3.00
2023-05-06T11:58:44.192Z,3.17
2023-05-06T12:01:11.100Z,3.15
2023-05-06T12:03:38.230Z,3.10
2023-05-06T12:06:05.483Z,3.10
2023-05-06T12:08:34.832Z,3.17
2023-05-06T12:11:03.748Z,3.38
2023-05-06T12:13:31.218Z,2.58
2023-05-06T12:15:59.768Z,3.07
2023-05-06T12:18:27.409Z,2.85
2023-05-06T12:21:01.420Z,3.17
2023-05-06T12:23:28.484Z,2.90
2023-05-06T12:26:04.036Z,2.85
2023-05-06T12:28:33.364Z,2.43
2023-05-06T12:31:01.982Z,2.65
2023-05-06T12:33:44.113Z,3.08
2023-05-06T12:36:11.344Z,2.92
2023-05-06T12:38:38.355Z,3.40
2023-05-06T12:41:07.604Z,4.27
2023-05-06T12:43:34.522Z,4.15
2023-05-06T12:46:06.547Z,4.40
2023-05-06T12:48:34.980Z,4.25
2023-05-06T12:51:16.976Z,4.82
2023-05-06T12:53:43.922Z,4.53
2023-05-06T12:56:10.792Z,4.55
2023-05-06T12:58:38.657Z,5.15
2023-05-06T13:01:07.661Z,5.10
2023-05-06T13:03:38.346Z,5.70
2023-05-06T13:06:05.894Z,5.33
2023-05-06T13:08:33.865Z,6.82
2023-05-06T13:11:02.682Z,6.60
2023-05-06T13:13:29.742Z,6.57
2023-05-06T13:15:57.125Z,7.30
2023-05-06T13:18:24.152Z,6.40
2023-05-06T13:20:51.809Z,6.75
2023-05-06T13:23:19.687Z,6.47
2023-05-06T13:26:02.865Z,5.70
2023-05-06T13:28:32.956Z,6.45
2023-05-06T13:31:00.009Z,5.90
2023-05-06T13:33:27.256Z,5.93
2023-05-06T13:35:54.324Z,5.53
2023-05-06T13:38:22.074Z,5.70
2023-05-06T13:40:53.647Z,6.07
2023-05-06T13:43:21.822Z,6.80
2023-05-06T13:45:48.734Z,6.18
2023-05-06T13:48:15.889Z,5.47
2023-05-06T13:50:46.366Z,5.53
2023-05-06T13:53:14.113Z,5.38
2023-05-06T13:55:42.608Z,4.87
2023-05-06T13:58:10.046Z,5.13
2023-05-06T14:00:37.137Z,6.68
2023-05-06T14:03:04.634Z,5.50
2023-05-06T14:05:32.517Z,5.80
2023-05-06T14:07:59.575Z,5.20
2023-05-06T14:10:26.690Z,5.60
2023-05-06T14:12:53.704Z,5.45
2023-05-06T14:15:21.079Z,6.32
2023-05-06T14:17:48.013Z,5.80
2023-05-06T14:20:17.139Z,5.40
2023-05-06T14:22:44.079Z,6.90
2023-05-06T14:25:11.441Z,5.88
2023-05-06T14:27:38.648Z,6.25
2023-05-06T14:30:08.925Z,6.40
2023-05-06T14:32:37.070Z,6.70
2023-05-06T14:35:07.121Z,6.47
2023-05-06T14:37:34.078Z,6.75
2023-05-06T14:40:01.287Z,7.15
2023-05-06T14:42:28.248Z,6.82
2023-05-06T14:44:57.834Z,7.27
2023-05-06T14:47:25.291Z,6.80
2023-05-06T14:49:52.212Z,6.32
2023-05-06T14:52:19.228Z,7.25
2023-05-06T14:54:48.727Z,7.05
2023-05-06T14:57:16.102Z,7.03
2023-05-06T14:59:43.136Z,7.32
2023-05-06T15:02:10.378Z,8.02
2023-05-06T15:04:37.629Z,7.85
2023-05-06T15:07:04.755Z,7.43
2023-05-06T15:09:31.757Z,7.30
2023-05-06T15:11:58.775Z,6.72
2023-05-06T15:14:26.187Z,8.13
2023-05-06T15:16:56.839Z,7.57
2023-05-06T15:19:24.629Z,7.80
2023-05-06T15:21:51.725Z,12.07
2023-05-06T15:24:18.738Z,13.98
2023-05-06T15:26:45.930Z,15.82
2023-05-06T15:29:13.097Z,16.88
2023-05-06T15:31:41.119Z,18.15
2023-05-06T15:34:09.860Z,19.93
2023-05-06T15:36:37.265Z,18.48
2023-05-06T15:39:04.667Z,19.88
2023-05-06T15:41:34.002Z,20.65
2023-05-06T15:44:02.714Z,19.38
2023-05-06T15:46:31.425Z,19.90
2023-05-06T15:49:22.397Z,19.55
2023-05-06T15:51:45.916Z,20.52
2023-05-06T15:54:13.533Z,20.42
2023-05-06T15:56:41.559Z,18.05
2023-05-06T15:59:09.109Z,18.00
2023-05-06T16:02:16.464Z,19.13
2023-05-06T16:04:24.525Z,18.10
2023-05-06T16:06:51.725Z,18.80
2023-05-06T16:09:18.690Z,18.42
2023-05-06T16:11:45.761Z,16.93
2023-05-06T16:14:13.240Z,17.73
2023-05-06T16:16:40.451Z,17.23
2023-05-06T16:19:07.943Z,16.83
2023-05-06T16:21:35.169Z,18.48
2023-05-06T16:24:02.532Z,18.10
2023-05-06T16:26:29.779Z,17.48
2023-05-06T16:28:56.668Z,16.20
2023-05-06T16:31:23.744Z,17.20
2023-05-06T16:33:51.034Z,17.95
2023-05-06T16:36:17.981Z,17.23
2023-05-06T16:38:44.944Z,16.50
2023-05-06T16:41:11.872Z,17.30
2023-05-06T16:43:38.716Z,16.60
2023-05-06T16:46:06.362Z,16.33
2023-05-06T16:48:33.593Z,15.70
2023-05-06T16:51:00.697Z,15.70
2023-05-06T16:53:28.056Z,14.98
2023-05-06T16:55:55.581Z,12.80
2023-05-06T16:58:22.620Z,14.25
2023-05-06T17:00:52.654Z,13.77
2023-05-06T17:03:19.989Z,12.68
2023-05-06T17:05:47.154Z,13.27
2023-05-06T17:08:16.279Z,12.55
2023-05-06T17:11:12.760Z,12.60
2023-05-06T17:13:39.955Z,12.17
2023-05-06T17:16:07.971Z,11.52
2023-05-06T17:18:34.898Z,13.85
2023-05-06T17:21:02.180Z,11.32
2023-05-06T17:23:29.224Z,13.30
2023-05-06T17:25:57.227Z,12.87
2023-05-06T17:28:24.265Z,11.75
2023-05-06T17:30:51.323Z,14.15
2023-05-06T17:33:18.280Z,12.70
2023-05-06T17:35:45.154Z,13.05
2023-05-06T17:38:13.162Z,13.87
2023-05-06T17:40:40.016Z,12.68
2023-05-06T17:43:07.417Z,13.25
2023-05-06T17:45:34.434Z,13.52
2023-05-06T17:48:01.511Z,13.45
2023-05-06T17:50:28.920Z,13.93
2023-05-06T17:52:55.938Z,13.32
2023-05-06T17:55:23.177Z,12.73
2023-05-06T17:57:50.345Z,13.00
2023-05-06T18:00:17.585Z,11.43
2023-05-06T18:02:45.424Z,11.83
2023-05-06T18:05:13.518Z,10.82
2023-05-06T18:07:41.145Z,11.40
2023-05-06T18:10:08.763Z,12.80
2023-05-06T18:12:36.046Z,11.95
2023-05-06T18:15:03.368Z,11.93
2023-05-06T18:17:30.271Z,11.30
2023-05-06T18:19:57.320Z,11.10
2023-05-06T18:22:24.260Z,9.43
2023-05-06T18:25:11.090Z,11.52
2023-05-06T18:27:38.461Z,11.83
2023-05-06T18:30:06.563Z,12.52
2023-05-06T18:32:34.602Z,14.05
2023-05-06T18:35:01.890Z,14.30
2023-05-06T18:37:31.750Z,13.52
2023-05-06T18:39:58.805Z,13.43
2023-05-06T18:42:27.554Z,12.05
2023-05-06T18:44:54.693Z,11.85
2023-05-06T18:47:21.658Z,12.50
2023-05-06T18:49:48.810Z,13.25
2023-05-06T18:52:17.760Z,12.17
2023-05-06T18:54:45.222Z,12.15
2023-05-06T18:57:12.612Z,13.18
2023-05-06T18:59:39.594Z,12.45
2023-05-06T19:02:07.951Z,12.25
2023-05-06T19:04:34.997Z,11.13
2023-05-06T19:07:02.030Z,11.45
2023-05-06T19:09:29.051Z,12.40
2023-05-06T19:11:56.341Z,11.55
2023-05-06T19:14:24.318Z,11.95
2023-05-06T19:16:52.525Z,12.00
2023-05-06T19:19:19.515Z,11.25
2023-05-06T19:21:46.547Z,11.23
2023-05-06T19:24:16.868Z,10.90
2023-05-06T19:26:51.285Z,11.10
2023-05-06T19:29:22.261Z,10.20
2023-05-06T19:31:49.571Z,10.07
2023-05-06T19:34:16.636Z,8.55
2023-05-06T19:36:43.641Z,9.48
2023-05-06T19:39:10.810Z,8.75
2023-05-06T19:41:40.073Z,8.07
2023-05-06T19:44:07.243Z,8.70
2023-05-06T19:46:34.321Z,8.23
2023-05-06T19:49:01.407Z,8.43
2023-05-06T19:51:28.439Z,8.48
2023-05-06T19:53:55.374Z,8.47
2023-05-06T19:56:22.329Z,8.63
2023-05-06T19:58:51.192Z,9.00
2023-05-06T20:01:22.466Z,9.73
2023-05-06T20:03:49.835Z,9.73
2023-05-06T20:06:17.179Z,9.50
2023-05-06T20:08:44.187Z,9.65
2023-05-06T20:11:11.349Z,9.32
2023-05-06T20:13:38.289Z,9.73
2023-05-06T20:16:05.522Z,11.13
2023-05-06T20:18:33.645Z,11.00
2023-05-06T20:21:00.904Z,11.52
2023-05-06T20:23:35.567Z,12.23
2023-05-06T20:26:02.992Z,14.30
2023-05-06T20:28:31.561Z,12.70
2023-05-06T20:30:59.891Z,10.93
2023-05-06T20:33:26.947Z,11.75
2023-05-06T20:35:53.918Z,11.18
2023-05-06T20:38:21.046Z,10.38
2023-05-06T20:40:48.365Z,10.10
2023-05-06T20:43:15.736Z,9.53
2023-05-06T20:45:42.748Z,9.85
2023-05-06T20:48:09.804Z,10.35
2023-05-06T20:50:37.240Z,9.80
2023-05-06T20:53:04.360Z,10.15
2023-05-06T20:55:31.491Z,9.70
2023-05-06T20:57:58.456Z,10.20
2023-05-06T21:00:25.628Z,10.48
2023-05-06T21:02:52.736Z,12.48
2023-05-06T21:05:19.844Z,13.05
2023-05-06T21:07:46.933Z,10.47
2023-05-06T21:10:14.670Z,10.18
2023-05-06T21:12:47.808Z,10.40
2023-05-06T21:15:15.166Z,10.55
2023-05-06T21:17:42.934Z,11.38
2023-05-06T21:20:10.679Z,11.67
2023-05-06T21:22:37.657Z,11.32
2023-05-06T21:25:13.401Z,11.38
2023-05-06T21:27:40.726Z,11.15
2023-05-06T21:30:09.332Z,10.73
2023-05-06T21:32:36.598Z,11.27
2023-05-06T21:35:04.171Z,12.27
2023-05-06T21:37:31.319Z,11.43
2023-05-06T21:39:58.302Z,10.73
2023-05-06T21:42:25.536Z,10.82
2023-05-06T21:44:52.529Z,11.57
2023-05-06T21:47:19.736Z,11.30
2023-05-06T21:50:08.076Z,11.27
2023-05-06T21:52:35.181Z,11.88
2023-05-06T21:55:02.317Z,11.10
2023-05-06T21:57:29.332Z,10.93
2023-05-06T21:59:56.569Z,12.45
2023-05-06T22:02:28.710Z,12.25
2023-05-06T22:04:57.160Z,12.45
2023-05-06T22:07:24.458Z,13.10
2023-05-06T22:09:51.516Z,13.20
2023-05-06T22:12:18.537Z,12.52
2023-05-06T22:14:46.112Z,12.73
2023-05-06T22:17:13.032Z,14.60
2023-05-06T22:19:40.970Z,13.57
2023-05-06T22:22:08.365Z,13.20
2023-05-06T22:24:35.429Z,12.32
2023-05-06T22:27:03.148Z,13.70
2023-05-06T22:29:30.361Z,12.95
2023-05-06T22:31:57.557Z,14.50
2023-05-06T22:34:27.078Z,13.47
2023-05-06T22:36:54.060Z,13.93
2023-05-06T22:39:21.523Z,14.20
2023-05-06T22:41:50.793Z,14.63
2023-05-06T22:44:17.827Z,13.90
2023-05-06T22:46:44.877Z,13.80
2023-05-06T22:49:11.932Z,13.88
2023-05-06T22:51:38.871Z,14.15
2023-05-06T22:54:06.003Z,13.32
2023-05-06T22:56:32.961Z,13.73
2023-05-06T22:59:00.045Z,14.43
2023-05-06T23:01:32.102Z,13.48
2023-05-06T23:04:00.224Z,13.60
2023-05-06T23:06:31.136Z,14.75
2023-05-06T23:08:58.349Z,13.27
2023-05-06T23:11:25.640Z,13.80
2023-05-06T23:13:52.590Z,13.50
2023-05-06T23:16:19.703Z,14.57
2023-05-06T23:18:46.706Z,13.65
2023-05-06T23:21:13.725Z,15.93
2023-05-06T23:23:40.781Z,14.77
2023-05-06T23:26:07.720Z,15.93
2023-05-06T23:28:34.785Z,14.25
2023-05-06T23:31:01.774Z,14.43
2023-05-06T23:33:28.831Z,14.77
2023-05-06T23:35:55.854Z,14.23
2023-05-06T23:38:25.070Z,14.48
2023-05-06T23:40:52.004Z,13.68
2023-05-06T23:43:19.054Z,14.30
2023-05-06T23:45:46.067Z,15.63
2023-05-06T23:48:13.241Z,14.70
2023-05-06T23:50:40.219Z,14.45
2023-05-06T23:53:07.182Z,14.02
2023-05-06T23:55:34.129Z,14.27
2023-05-06T23:58:01.130Z,13.55
